Time;durP1;ratioP1;P1;durP2;ratioP2;P2;SDS_P1;SDS_P2;PMS_P1;PMS_P2;Temp;Humidity;BMP_temperature;BMP_pressure;BME280_temperature;BME280_humidity;BME280_pressure;Samples;Min_cycle;Max_cycle;Signal;HPM_P1;HPM_P2
2023/04/10 00:00:06;;;;;;;10.27;9.37;;;8.60;99.90;;;;;;5094838;28;20877;-42
2023/04/10 00:02:32;;;;;;;10.70;9.60;;;8.50;99.90;;;;;;5096425;28;20252;-40
2023/04/10 00:04:58;;;;;;;10.03;9.03;;;8.50;99.90;;;;;;5096386;28;20426;-41
2023/04/10 00:07:25;;;;;;;10.90;9.80;;;8.50;99.90;;;;;;5095173;28;20572;-41
2023/04/10 00:09:51;;;;;;;11.13;10.07;;;8.40;99.90;;;;;;5096739;28;20766;-41
2023/04/10 00:12:17;;;;;;;11.63;9.77;;;8.40;99.90;;;;;;5096327;28;20689;-41
2023/04/10 00:14:42;;;;;;;10.97;9.57;;;8.40;99.90;;;;;;5097455;28;20180;-41
2023/04/10 00:17:08;;;;;;;10.30;9.30;;;8.30;99.90;;;;;;5096280;28;20530;-42
2023/04/10 00:19:34;;;;;;;10.20;8.97;;;8.30;99.90;;;;;;5096728;28;20498;-42
2023/04/10 00:22:00;;;;;;;10.83;9.73;;;8.30;99.90;;;;;;5095433;28;20418;-43
2023/04/10 00:24:26;;;;;;;9.80;8.80;;;8.20;99.90;;;;;;5094489;28;20187;-40
2023/04/10 00:26:51;;;;;;;9.63;8.60;;;8.20;99.90;;;;;;5095704;28;20176;-45
2023/04/10 00:29:17;;;;;;;10.17;9.13;;;8.10;99.90;;;;;;5095588;28;20619;-44
2023/04/10 00:31:43;;;;;;;10.30;8.80;;;8.10;99.90;;;;;;5095813;28;20397;-44
2023/04/10 00:34:08;;;;;;;10.23;9.23;;;8.10;99.90;;;;;;5095868;28;20264;-41
2023/04/10 00:36:34;;;;;;;9.63;8.40;;;8.00;99.90;;;;;;5095958;28;20195;-41
2023/04/10 00:39:00;;;;;;;10.07;9.07;;;8.00;99.90;;;;;;5095278;28;20227;-42
2023/04/10 00:41:26;;;;;;;9.80;8.80;;;8.00;99.90;;;;;;5094742;28;20505;-40
2023/04/10 00:43:56;;;;;;;10.13;9.13;;;7.90;99.90;;;;;;5095630;28;20176;-40
2023/04/10 00:46:26;;;;;;;10.60;9.50;;;7.90;99.90;;;;;;5095750;28;20766;-40
2023/04/10 00:48:53;;;;;;;10.63;9.63;;;7.90;99.90;;;;;;5096943;28;20471;-40
2023/04/10 00:51:22;;;;;;;10.03;8.73;;;7.80;99.90;;;;;;5095858;28;20524;-40
2023/04/10 00:53:50;;;;;;;11.43;10.23;;;7.80;99.90;;;;;;5094481;28;20450;-41
2023/04/10 00:56:19;;;;;;;9.40;8.50;;;7.70;99.90;;;;;;5096834;28;20677;-42
2023/04/10 00:58:46;;;;;;;9.90;9.00;;;7.70;99.90;;;;;;5096697;28;20560;-41
2023/04/10 01:01:12;;;;;;;11.10;10.00;;;7.70;99.90;;;;;;5096534;28;20813;-41
2023/04/10 01:03:38;;;;;;;11.83;10.50;;;7.60;99.90;;;;;;5096924;28;20522;-40
2023/04/10 01:06:33;;;;;;;10.80;9.77;;;7.60;99.90;;;;;;5096294;28;20488;-40
2023/04/10 01:09:02;;;;;;;10.60;9.50;;;7.50;99.90;;;;;;5060434;28;20870;-43
2023/04/10 01:11:45;;;;;;;10.40;9.30;;;7.40;1.00;;;;;;5097110;28;20475;-42
2023/04/10 01:14:50;;;;;;;10.13;9.00;;;7.40;1.00;;;;;;5096226;28;20426;-41
2023/04/10 01:17:40;;;;;;;11.67;10.33;;;7.30;1.00;;;;;;5011571;28;20762;-41
2023/04/10 01:20:18;;;;;;;10.30;9.23;;;7.30;1.00;;;;;;5088793;28;20438;-44
2023/04/10 01:23:04;;;;;;;10.03;8.77;;;7.20;1.00;;;;;;5094388;28;20730;-44
2023/04/10 01:25:47;;;;;;;10.90;9.80;;;7.10;1.00;;;;;;5095714;28;20453;-43
2023/04/10 01:28:32;;;;;;;10.30;9.20;;;7.10;1.00;;;;;;5095816;28;20434;-43
2023/04/10 01:31:00;;;;;;;10.73;9.70;;;7.10;1.00;;;;;;5095679;28;20463;-42
2023/04/10 01:33:38;;;;;;;10.10;9.10;;;7.00;1.00;;;;;;5095683;28;20430;-41
2023/04/10 01:36:05;;;;;;;11.27;10.17;;;7.00;1.00;;;;;;5094185;28;20506;-42
2023/04/10 01:38:33;;;;;;;10.43;9.23;;;6.90;1.00;;;;;;5095392;28;20584;-40
2023/04/10 01:41:00;;;;;;;11.33;10.13;;;6.90;1.00;;;;;;5095080;28;20423;-40
2023/04/10 01:43:27;;;;;;;11.90;10.40;;;6.90;1.00;;;;;;5094560;28;20501;-42
2023/04/10 01:45:52;;;;;;;11.30;10.07;;;6.80;1.00;;;;;;5094805;28;20430;-40
2023/04/10 01:48:19;;;;;;;9.30;7.97;;;6.80;1.00;;;;;;5094291;28;20415;-42
2023/04/10 01:50:45;;;;;;;9.73;7.07;;;8.50;99.90;;;;;;5096197;28;20628;-41
2023/04/10 01:53:12;;;;;;;11.43;9.00;;;9.50;99.90;;;;;;5095358;28;20422;-40
2023/04/10 01:55:38;;;;;;;10.40;9.23;;;9.20;1.00;;;;;;5094862;28;20556;-40
2023/04/10 01:58:03;;;;;;;9.37;8.40;;;9.00;99.90;;;;;;5094435;28;20488;-40
2023/04/10 02:00:29;;;;;;;9.43;8.57;;;8.70;1.00;;;;;;5094781;28;20426;-40
2023/04/10 02:02:57;;;;;;;10.70;9.60;;;8.40;1.00;;;;;;5094714;28;20187;-41
2023/04/10 02:05:29;;;;;;;11.00;9.60;;;8.10;1.00;;;;;;5094129;28;20802;-42
2023/04/10 02:08:10;;;;;;;10.80;9.70;;;7.90;99.90;;;;;;5094672;28;20410;-42
2023/04/10 02:10:53;;;;;;;10.47;9.10;;;7.70;99.90;;;;;;5095521;28;20438;-39
2023/04/10 02:13:21;;;;;;;11.03;9.93;;;7.50;99.90;;;;;;5096219;28;20422;-42
2023/04/10 02:15:49;;;;;;;10.20;9.20;;;7.30;99.90;;;;;;5095113;28;20434;-42
2023/04/10 02:18:18;;;;;;;11.60;10.40;;;7.10;99.90;;;;;;5095331;28;20526;-40
2023/04/10 02:20:43;;;;;;;10.63;9.53;;;7.00;99.90;;;;;;5095101;28;20425;-43
2023/04/10 02:23:09;;;;;;;10.77;9.33;;;6.90;99.90;;;;;;5095358;28;20513;-45
2023/04/10 02:25:35;;;;;;;11.03;9.93;;;6.80;99.90;;;;;;5094671;28;20176;-41
2023/04/10 02:28:05;;;;;;;11.07;9.97;;;6.70;99.90;;;;;;5093446;28;20418;-40
2023/04/10 02:30:32;;;;;;;10.70;9.60;;;6.60;99.90;;;;;;5093056;28;20573;-43
2023/04/10 02:32:58;;;;;;;10.13;9.23;;;6.50;99.90;;;;;;5094167;28;20477;-40
2023/04/10 02:35:23;;;;;;;10.63;9.57;;;6.50;99.90;;;;;;5094612;28;20627;-42
2023/04/10 02:37:49;;;;;;;11.40;10.20;;;6.40;99.90;;;;;;5092729;28;20740;-40
2023/04/10 02:40:15;;;;;;;10.03;9.03;;;6.40;99.90;;;;;;5092660;28;20808;-40
2023/04/10 02:42:41;;;;;;;12.17;10.60;;;6.30;99.90;;;;;;5093352;28;20227;-42
2023/04/10 02:45:09;;;;;;;11.67;10.00;;;6.30;99.90;;;;;;5092899;28;20465;-41
2023/04/10 02:47:35;;;;;;;12.23;10.60;;;6.20;99.90;;;;;;5094780;28;20165;-44
2023/04/10 02:50:01;;;;;;;11.33;10.20;;;6.20;99.90;;;;;;5094774;28;20428;-43
2023/04/10 02:52:26;;;;;;;12.67;11.23;;;6.10;99.90;;;;;;5095522;28;20554;-42
2023/04/10 02:54:52;;;;;;;10.97;9.87;;;6.10;99.90;;;;;;5095770;28;20184;-43
2023/04/10 02:57:18;;;;;;;12.83;10.83;;;6.10;99.90;;;;;;5094333;28;20325;-41
2023/04/10 02:59:43;;;;;;;11.10;9.70;;;6.00;99.90;;;;;;5095465;28;20172;-42
2023/04/10 03:02:09;;;;;;;11.23;10.07;;;6.00;99.90;;;;;;5095319;28;20290;-40
2023/04/10 03:04:35;;;;;;;11.40;10.20;;;6.00;99.90;;;;;;5095324;28;20424;-42
2023/04/10 03:07:01;;;;;;;10.47;9.40;;;5.90;99.90;;;;;;5096292;28;20587;-41
2023/04/10 03:09:27;;;;;;;11.10;10.00;;;5.90;99.90;;;;;;5095895;28;20418;-42
2023/04/10 03:11:53;;;;;;;11.50;10.17;;;5.80;99.90;;;;;;5095957;28;20676;-40
2023/04/10 03:14:19;;;;;;;11.97;9.40;;;5.80;99.90;;;;;;5095084;28;20462;-40
2023/04/10 03:16:46;;;;;;;12.77;10.70;;;5.80;99.90;;;;;;5094082;28;20669;-41
2023/04/10 03:19:12;;;;;;;10.97;9.87;;;5.80;99.90;;;;;;5094771;28;20227;-42
2023/04/10 03:21:38;;;;;;;11.00;9.90;;;5.70;99.90;;;;;;5094331;28;20425;-40
2023/04/10 03:24:05;;;;;;;11.57;9.87;;;5.70;99.90;;;;;;5095619;28;20673;-41
2023/04/10 03:26:30;;;;;;;11.73;10.50;;;5.70;99.90;;;;;;5095229;28;20439;-39
2023/04/10 03:28:56;;;;;;;12.97;9.80;;;5.60;99.90;;;;;;5095392;28;20406;-40
2023/04/10 03:31:22;;;;;;;11.03;9.40;;;5.60;99.90;;;;;;5094818;28;20546;-40
2023/04/10 03:33:47;;;;;;;10.83;8.80;;;5.60;99.90;;;;;;5095474;28;20429;-40
2023/04/10 03:36:13;;;;;;;10.80;9.70;;;5.50;99.90;;;;;;5095609;28;20589;-42
2023/04/10 03:38:39;;;;;;;10.23;9.13;;;5.50;99.90;;;;;;5095379;28;20292;-42
2023/04/10 03:41:05;;;;;;;11.03;9.30;;;5.50;99.90;;;;;;5098707;28;20181;-43
2023/04/10 03:43:31;;;;;;;10.50;9.20;;;5.50;99.90;;;;;;5098916;28;20182;-43
2023/04/10 03:45:57;;;;;;;10.20;8.50;;;5.50;99.90;;;;;;5098688;28;20414;-43
2023/04/10 03:48:22;;;;;;;9.70;8.70;;;5.50;99.90;;;;;;5098745;28;20168;-40
2023/04/10 03:50:48;;;;;;;9.87;8.70;;;5.50;99.90;;;;;;5098281;28;20516;-40
2023/04/10 03:53:14;;;;;;;11.50;9.87;;;5.50;99.90;;;;;;5098354;28;20234;-41
2023/04/10 03:55:40;;;;;;;10.70;8.90;;;5.50;99.90;;;;;;5098143;28;20211;-39
2023/04/10 03:58:05;;;;;;;8.90;8.00;;;5.50;99.90;;;;;;5097022;28;20462;-40
2023/04/10 04:00:32;;;;;;;9.80;8.67;;;5.50;99.90;;;;;;5096856;28;20209;-44
2023/04/10 04:02:58;;;;;;;9.77;8.77;;;5.50;99.90;;;;;;5095934;28;20188;-40
2023/04/10 04:05:24;;;;;;;11.27;10.00;;;5.40;99.90;;;;;;5095522;28;20487;-42
2023/04/10 04:07:50;;;;;;;10.73;9.20;;;5.40;99.90;;;;;;5095904;28;20520;-40
2023/04/10 04:10:15;;;;;;;11.17;9.97;;;5.40;99.90;;;;;;5095419;28;20452;-40
2023/04/10 04:12:41;;;;;;;11.90;10.70;;;5.40;99.90;;;;;;5095771;28;20176;-42
2023/04/10 04:15:07;;;;;;;10.53;9.43;;;5.40;99.90;;;;;;5096630;28;20188;-42
2023/04/10 04:17:33;;;;;;;10.33;9.23;;;5.30;99.90;;;;;;5096711;28;20306;-43
2023/04/10 04:19:59;;;;;;;10.53;9.43;;;5.30;99.90;;;;;;5095243;28;20513;-41
2023/04/10 04:22:24;;;;;;;10.27;9.17;;;5.30;99.90;;;;;;5095082;28;20805;-42
2023/04/10 04:24:51;;;;;;;10.50;9.40;;;5.30;99.90;;;;;;5095460;28;20176;-41
2023/04/10 04:27:17;;;;;;;10.57;9.50;;;5.30;1.00;;;;;;5096444;28;20172;-41
2023/04/10 04:29:43;;;;;;;10.77;9.60;;;5.30;1.00;;;;;;5096399;28;20474;-41
2023/04/10 04:32:09;;;;;;;11.27;9.77;;;5.20;1.00;;;;;;5096766;28;20442;-41
2023/04/10 04:34:34;;;;;;;12.57;10.57;;;5.20;1.00;;;;;;5096712;28;20199;-41
2023/04/10 04:37:01;;;;;;;10.63;9.30;;;5.30;1.00;;;;;;5097186;28;20382;-42
2023/04/10 04:39:27;;;;;;;10.93;9.70;;;5.30;1.00;;;;;;5097654;28;20310;-41
2023/04/10 04:41:53;;;;;;;10.93;9.70;;;5.30;1.00;;;;;;5098079;28;20525;-42
2023/04/10 04:44:18;;;;;;;10.13;9.13;;;5.30;1.00;;;;;;5097010;28;20173;-41
2023/04/10 04:46:44;;;;;;;10.13;8.00;;;5.40;1.00;;;;;;5097770;28;20248;-43
2023/04/10 04:49:10;;;;;;;10.90;9.80;;;5.40;1.00;;;;;;5097239;28;20812;-40
2023/04/10 04:51:37;;;;;;;11.77;10.57;;;5.50;1.00;;;;;;5097651;28;20184;-40
2023/04/10 04:54:03;;;;;;;10.57;9.50;;;5.50;1.00;;;;;;5096391;28;20182;-41
2023/04/10 04:56:28;;;;;;;10.90;9.73;;;5.60;1.00;;;;;;5097622;28;20419;-42
2023/04/10 04:58:54;;;;;;;11.53;10.30;;;5.70;1.00;;;;;;5097423;28;20791;-40
2023/04/10 05:01:20;;;;;;;10.50;9.40;;;5.70;99.90;;;;;;5096480;28;20524;-45
2023/04/10 05:03:45;;;;;;;10.83;9.10;;;5.80;99.90;;;;;;5095355;28;20196;-41
2023/04/10 05:06:11;;;;;;;11.10;9.40;;;5.90;99.90;;;;;;5094698;28;20200;-41
2023/04/10 05:08:37;;;;;;;11.60;9.60;;;5.90;99.90;;;;;;5095995;28;20412;-41
2023/04/10 05:11:02;;;;;;;13.10;10.27;;;6.00;99.90;;;;;;5094212;28;20188;-41
2023/04/10 05:13:28;;;;;;;10.70;9.60;;;6.10;99.90;;;;;;5094669;28;20275;-42
2023/04/10 05:15:54;;;;;;;12.27;11.00;;;6.20;99.90;;;;;;5096169;28;20265;-40
2023/04/10 05:18:22;;;;;;;10.97;9.50;;;6.20;99.90;;;;;;5095733;28;20411;-40
2023/04/10 05:20:48;;;;;;;10.83;9.73;;;6.20;99.90;;;;;;5096161;28;20485;-42
2023/04/10 05:23:14;;;;;;;10.33;8.80;;;6.30;99.90;;;;;;5096842;28;20433;-43
2023/04/10 05:25:40;;;;;;;10.73;9.63;;;6.40;99.90;;;;;;5097212;28;20688;-42
2023/04/10 05:28:06;;;;;;;11.67;9.90;;;6.40;99.90;;;;;;5097533;28;20422;-41
2023/04/10 05:30:32;;;;;;;8.97;8.07;;;6.50;99.90;;;;;;5097714;28;20482;-40
2023/04/10 05:32:57;;;;;;;9.40;8.50;;;6.60;99.90;;;;;;5096821;28;20181;-42
2023/04/10 05:35:23;;;;;;;10.50;9.40;;;6.70;99.90;;;;;;5096300;28;20193;-43
2023/04/10 05:37:49;;;;;;;10.33;9.23;;;6.80;99.90;;;;;;5094896;28;20204;-41
2023/04/10 05:40:15;;;;;;;10.30;8.90;;;6.90;99.90;;;;;;5095544;28;20184;-40
2023/04/10 05:42:40;;;;;;;11.33;9.73;;;7.10;95.10;;;;;;5095276;28;20527;-43
2023/04/10 05:45:06;;;;;;;11.40;9.93;;;7.20;68.90;;;;;;5094018;28;20577;-40
2023/04/10 05:47:32;;;;;;;9.07;8.13;;;7.30;47.70;;;;;;5093655;28;20247;-39
2023/04/10 05:49:58;;;;;;;9.60;8.60;;;7.40;29.30;;;;;;5093531;28;21005;-41
2023/04/10 05:52:24;;;;;;;11.80;10.00;;;7.60;17.10;;;;;;5076997;28;20283;-41
2023/04/10 05:54:50;;;;;;;9.93;8.97;;;7.70;4.70;;;;;;5093890;28;20540;-45
2023/04/10 05:57:16;;;;;;;10.50;9.40;;;7.80;1.00;;;;;;5096069;28;20224;-41
2023/04/10 05:59:42;;;;;;;10.60;8.90;;;8.00;1.00;;;;;;5094474;28;20514;-43
2023/04/10 06:02:08;;;;;;;11.40;10.30;;;8.20;1.00;;;;;;5092423;28;20207;-41
2023/04/10 06:04:33;;;;;;;10.63;9.57;;;8.30;1.00;;;;;;5092289;28;20463;-41
2023/04/10 06:07:00;;;;;;;11.73;10.57;;;8.50;1.00;;;;;;5094004;28;20347;-44
2023/04/10 06:09:25;;;;;;;9.93;8.93;;;8.60;1.00;;;;;;5092595;28;20473;-43
2023/04/10 06:11:52;;;;;;;10.27;9.03;;;8.80;1.00;;;;;;5092192;28;20676;-41
2023/04/10 06:14:19;;;;;;;10.63;9.63;;;8.90;1.00;;;;;;5093287;28;20215;-43
2023/04/10 06:16:45;;;;;;;10.23;9.23;;;9.10;1.00;;;;;;5093866;28;20438;-43
2023/04/10 06:19:11;;;;;;;10.50;9.40;;;9.20;1.00;;;;;;5094429;28;20512;-45
2023/04/10 06:21:36;;;;;;;10.53;9.50;;;9.40;1.00;;;;;;5095178;28;20438;-41
2023/04/10 06:24:02;;;;;;;11.67;9.97;;;9.50;1.00;;;;;;5094458;28;20725;-42
2023/04/10 06:26:28;;;;;;;10.63;9.53;;;9.70;1.00;;;;;;5094244;28;20200;-44
2023/04/10 06:28:54;;;;;;;12.30;11.00;;;9.80;1.00;;;;;;5093639;28;20205;-44
2023/04/10 06:31:22;;;;;;;11.53;10.37;;;10.00;1.00;;;;;;5092814;28;20184;-41
2023/04/10 06:33:49;;;;;;;10.77;9.77;;;10.10;1.00;;;;;;5094534;28;20744;-41
2023/04/10 06:36:15;;;;;;;12.80;10.43;;;10.20;1.00;;;;;;5093574;28;20475;-43
2023/04/10 06:38:41;;;;;;;11.50;10.30;;;10.40;1.00;;;;;;5092965;28;20458;-44
2023/04/10 06:41:07;;;;;;;12.23;9.60;;;10.60;1.00;;;;;;5093357;28;20435;-42
2023/04/10 06:43:34;;;;;;;12.63;10.73;;;10.90;1.00;;;;;;5094305;28;20418;-41
2023/04/10 06:46:00;;;;;;;11.30;10.20;;;11.10;1.00;;;;;;5093870;28;20474;-41
2023/04/10 06:48:25;;;;;;;10.43;9.37;;;11.30;1.00;;;;;;5093663;28;20787;-41
2023/04/10 06:50:51;;;;;;;11.47;10.33;;;11.60;1.00;;;;;;5094481;28;20214;-42
2023/04/10 06:53:17;;;;;;;10.33;9.23;;;11.80;1.00;;;;;;5095724;28;20184;-41
2023/04/10 06:55:42;;;;;;;10.03;9.13;;;12.10;1.00;;;;;;5094208;28;20274;-43
2023/04/10 06:58:08;;;;;;;10.23;9.30;;;12.30;1.00;;;;;;5093733;28;20218;-42
2023/04/10 07:00:33;;;;;;;9.83;8.93;;;12.50;1.00;;;;;;5095265;28;20183;-43
2023/04/10 07:02:59;;;;;;;9.70;8.70;;;12.80;1.00;;;;;;5093780;28;20424;-44
2023/04/10 07:05:25;;;;;;;10.60;9.50;;;13.00;1.00;;;;;;5092061;28;20515;-44
2023/04/10 07:07:50;;;;;;;9.97;8.97;;;13.20;1.00;;;;;;5090545;28;20190;-41
2023/04/10 07:10:16;;;;;;;9.70;8.70;;;13.40;1.00;;;;;;5089825;28;20195;-41
2023/04/10 07:12:42;;;;;;;8.93;8.07;;;13.80;1.00;;;;;;5091494;28;20596;-41
2023/04/10 07:15:08;;;;;;;9.60;8.70;;;14.10;1.00;;;;;;5095425;28;20613;-44
2023/04/10 07:17:34;;;;;;;8.53;7.80;;;14.40;1.00;;;;;;5097177;28;20484;-43
2023/04/10 07:19:59;;;;;;;7.37;6.67;;;14.70;1.00;;;;;;5079146;28;20525;-44
2023/04/10 07:22:26;;;;;;;8.57;7.77;;;15.00;1.00;;;;;;5098508;28;20408;-43
2023/04/10 07:24:52;;;;;;;7.27;6.57;;;15.30;1.00;;;;;;5097990;28;20283;-43
2023/04/10 07:27:19;;;;;;;6.43;5.83;;;15.60;1.00;;;;;;5099126;28;20849;-47
2023/04/10 07:29:45;;;;;;;6.27;5.67;;;15.90;1.00;;;;;;5099036;28;20246;-41
2023/04/10 07:32:11;;;;;;;5.90;5.40;;;16.10;1.00;;;;;;5098110;28;20468;-44
2023/04/10 07:34:36;;;;;;;6.50;5.90;;;16.20;1.00;;;;;;5096925;28;20458;-44
2023/04/10 07:37:02;;;;;;;6.70;6.00;;;16.40;1.00;;;;;;5095968;28;20173;-42
2023/04/10 07:39:28;;;;;;;6.03;5.43;;;16.60;1.00;;;;;;5096240;28;20529;-42
2023/04/10 07:41:54;;;;;;;5.70;5.30;;;16.80;1.00;;;;;;5095945;28;20267;-43
2023/04/10 07:44:19;;;;;;;5.53;5.03;;;17.10;1.00;;;;;;5095156;28;20192;-43
2023/04/10 07:46:46;;;;;;;6.50;5.90;;;17.20;1.00;;;;;;5079022;28;20440;-43
2023/04/10 07:49:12;;;;;;;6.90;6.20;;;17.60;1.00;;;;;;5095985;28;20184;-41
2023/04/10 07:51:37;;;;;;;6.27;5.67;;;18.10;1.00;;;;;;5098836;28;20468;-42
2023/04/10 07:54:03;;;;;;;6.13;5.53;;;18.70;1.00;;;;;;5098945;28;20663;-40
2023/04/10 07:56:32;;;;;;;5.10;4.67;;;19.40;1.00;;;;;;5097691;28;20439;-46
2023/04/10 07:59:01;;;;;;;5.10;4.67;;;20.10;1.00;;;;;;5097802;28;20500;-43
2023/04/10 08:01:27;;;;;;;5.40;4.90;;;20.90;1.00;;;;;;5098220;28;20509;-43
2023/04/10 08:03:54;;;;;;;5.77;5.20;;;21.70;1.00;;;;;;5098376;28;20513;-41
2023/04/10 08:06:20;;;;;;;5.33;4.93;;;22.60;1.00;;;;;;5098148;28;20838;-43
2023/04/10 08:08:46;;;;;;;4.83;4.43;;;23.30;99.90;;;;;;5096944;28;20422;-41
2023/04/10 08:11:31;;;;;;;5.77;5.27;;;24.00;99.90;;;;;;5097371;28;20422;-41
2023/04/10 08:14:00;;;;;;;5.30;4.90;;;24.70;99.90;;;;;;5098590;28;20490;-42
2023/04/10 08:16:27;;;;;;;5.37;4.87;;;25.10;99.90;;;;;;5098423;28;20422;-44
2023/04/10 08:18:54;;;;;;;5.90;5.40;;;25.60;99.90;;;;;;5098077;28;20533;-45
2023/04/10 08:21:25;;;;;;;5.63;5.20;;;25.90;99.90;;;;;;5096753;28;20446;-42
2023/04/10 08:23:52;;;;;;;5.47;5.07;;;26.30;99.90;;;;;;5097119;28;20410;-43
2023/04/10 08:26:21;;;;;;;5.37;4.87;;;26.60;99.90;;;;;;5096790;28;20844;-41
2023/04/10 08:28:49;;;;;;;5.30;4.90;;;26.80;99.90;;;;;;5096223;28;20824;-42
2023/04/10 08:31:19;;;;;;;6.83;5.00;;;26.70;99.90;;;;;;5097400;28;20449;-45
2023/04/10 08:33:44;;;;;;;5.53;5.03;;;26.60;99.90;;;;;;5096910;28;20437;-42
2023/04/10 08:36:11;;;;;;;5.07;4.67;;;26.40;99.90;;;;;;5094568;28;20517;-42
2023/04/10 08:38:38;;;;;;;5.10;4.70;;;26.60;99.90;;;;;;5096054;28;20219;-44
2023/04/10 08:41:04;;;;;;;5.73;5.23;;;27.00;99.90;;;;;;5096569;28;20423;-43
2023/04/10 08:43:30;;;;;;;5.30;4.90;;;27.20;99.90;;;;;;5095955;28;20418;-43
2023/04/10 08:45:56;;;;;;;4.57;4.10;;;27.40;99.90;;;;;;5095931;28;20863;-42
2023/04/10 08:48:24;;;;;;;4.20;3.90;;;27.60;99.90;;;;;;5091962;28;20253;-50
2023/04/10 08:50:50;;;;;;;4.30;4.00;;;28.30;99.90;;;;;;5093311;28;20635;-47
2023/04/10 08:53:18;;;;;;;4.73;4.00;;;28.70;99.90;;;;;;5094487;28;20434;-48
2023/04/10 08:55:44;;;;;;;4.10;3.70;;;29.10;1.00;;;;;;5094490;28;20430;-47
2023/04/10 08:58:12;;;;;;;4.53;4.13;;;29.50;99.90;;;;;;5091350;28;20611;-47
2023/04/10 09:00:38;;;;;;;4.83;4.43;;;29.90;99.90;;;;;;5092442;28;20514;-46
2023/04/10 09:03:14;;;;;;;4.37;3.90;;;30.10;99.90;;;;;;5091399;28;20505;-47
2023/04/10 09:05:40;;;;;;;5.10;4.60;;;30.20;99.90;;;;;;5091264;28;20803;-47
2023/04/10 09:08:09;;;;;;;6.63;4.10;;;29.20;99.90;;;;;;5093722;28;20520;-49
2023/04/10 09:10:35;;;;;;;5.00;3.93;;;28.10;99.90;;;;;;5094160;28;20245;-46
2023/04/10 09:13:01;;;;;;;8.63;4.20;;;27.20;99.90;;;;;;5093241;28;20430;-48
2023/04/10 09:15:27;;;;;;;4.10;3.80;;;26.50;99.90;;;;;;5092063;28;20208;-49
2023/04/10 09:17:58;;;;;;;4.10;3.70;;;25.90;99.90;;;;;;5091944;28;20752;-45
2023/04/10 09:20:25;;;;;;;4.73;4.33;;;25.60;99.90;;;;;;5092505;28;20639;-44
2023/04/10 09:22:51;;;;;;;4.03;3.73;;;25.50;99.90;;;;;;5092844;28;20426;-45
2023/04/10 09:25:40;;;;;;;4.13;3.73;;;25.60;99.90;;;;;;5094504;28;20495;-46
2023/04/10 09:28:07;;;;;;;3.90;3.37;;;25.60;99.90;;;;;;5093076;28;20917;-46
2023/04/10 09:30:41;;;;;;;4.73;4.23;;;25.70;99.90;;;;;;5093574;28;20536;-46
2023/04/10 09:33:29;;;;;;;3.73;3.43;;;25.80;99.90;;;;;;5093545;28;20414;-44
2023/04/10 09:35:59;;;;;;;3.77;3.47;;;26.00;99.90;;;;;;5093530;28;20851;-45
2023/04/10 09:38:25;;;;;;;4.07;3.77;;;26.10;99.90;;;;;;5094842;28;20498;-50
2023/04/10 09:40:51;;;;;;;3.90;3.60;;;26.10;99.90;;;;;;5093788;28;20428;-49
2023/04/10 09:43:24;;;;;;;3.60;3.30;;;26.10;99.90;;;;;;5094762;28;20449;-52
2023/04/10 09:45:57;;;;;;;4.10;3.80;;;26.00;99.90;;;;;;5095098;28;20216;-47
2023/04/10 09:48:25;;;;;;;4.00;3.70;;;26.20;99.90;;;;;;5093121;28;20414;-51
2023/04/10 09:50:51;;;;;;;4.03;3.63;;;26.50;99.90;;;;;;5093886;28;20426;-53
2023/04/10 09:53:18;;;;;;;5.30;3.63;;;26.80;99.90;;;;;;5092975;28;20496;-49
2023/04/10 09:55:48;;;;;;;3.90;3.50;;;27.00;99.90;;;;;;5095018;28;20184;-50
2023/04/10 09:58:15;;;;;;;3.00;2.80;;;27.20;99.90;;;;;;5094898;28;20458;-50
2023/04/10 10:00:44;;;;;;;5.40;5.00;;;27.30;99.90;;;;;;5094565;28;20468;-51
2023/04/10 10:03:15;;;;;;;4.60;4.20;;;27.50;99.90;;;;;;5094268;28;20509;-49
2023/04/10 10:05:45;;;;;;;4.17;3.77;;;27.90;99.90;;;;;;5092409;28;20430;-48
2023/04/10 10:08:12;;;;;;;4.23;3.80;;;28.10;99.90;;;;;;5093059;28;20497;-49
2023/04/10 10:10:46;;;;;;;3.80;3.50;;;28.10;99.90;;;;;;5092731;28;20438;-49
2023/04/10 10:13:23;;;;;;;3.73;3.43;;;28.50;99.90;;;;;;5090296;28;20425;-49
2023/04/10 10:16:01;;;;;;;3.67;3.30;;;28.80;99.90;;;;;;5090986;28;20409;-47
2023/04/10 10:18:39;;;;;;;3.80;3.50;;;29.20;99.90;;;;;;5090263;28;20560;-47
2023/04/10 10:21:05;;;;;;;4.17;3.87;;;29.60;99.90;;;;;;5092581;28;20575;-45
2023/04/10 10:23:31;;;;;;;4.10;3.80;;;29.80;99.90;;;;;;5092978;28;20741;-53
2023/04/10 10:25:57;;;;;;;3.37;3.17;;;29.90;99.90;;;;;;5093140;28;20694;-54
2023/04/10 10:28:24;;;;;;;3.30;3.00;;;29.90;99.90;;;;;;5092093;28;20280;-54
2023/04/10 10:30:50;;;;;;;3.50;3.20;;;30.10;99.90;;;;;;5093031;28;20453;-57
2023/04/10 10:33:17;;;;;;;3.43;3.13;;;30.40;99.90;;;;;;5094001;28;20851;-53
2023/04/10 10:35:43;;;;;;;4.63;2.90;;;30.60;99.90;;;;;;5094119;28;20487;-54
2023/04/10 10:38:09;;;;;;;3.30;2.97;;;30.90;99.90;;;;;;5094198;28;20777;-53
2023/04/10 10:40:56;;;;;;;3.37;3.10;;;30.90;99.90;;;;;;5092329;28;20524;-51
2023/04/10 10:43:37;;;;;;;3.10;2.60;;;31.40;99.90;;;;;;5091143;28;20237;-51
2023/04/10 10:46:06;;;;;;;2.60;2.40;;;31.50;99.90;;;;;;5092322;28;20724;-55
2023/04/10 10:48:32;;;;;;;2.53;2.33;;;31.40;99.90;;;;;;5094080;28;20800;-54
2023/04/10 10:50:59;;;;;;;2.70;2.07;;;31.30;99.90;;;;;;5098500;28;20388;-56
2023/04/10 10:53:44;;;;;;;8.93;3.00;;;31.20;99.90;;;;;;5097987;28;20263;-54
2023/04/10 10:56:19;;;;;;;2.47;2.27;;;31.00;99.90;;;;;;5098441;28;20806;-52
2023/04/10 10:58:49;;;;;;;3.03;2.80;;;31.00;99.90;;;;;;5097328;28;20726;-58
2023/04/10 11:01:15;;;;;;;2.73;2.20;;;30.90;99.90;;;;;;5097895;28;20393;-56
2023/04/10 11:03:43;;;;;;;6.20;2.70;;;30.90;99.90;;;;;;5097444;28;20511;-55
2023/04/10 11:06:11;;;;;;;3.90;3.60;;;31.00;99.90;;;;;;5096991;28;20507;-51
2023/04/10 11:08:41;;;;;;;3.80;2.97;;;31.20;99.90;;;;;;5096898;28;20434;-55
2023/04/10 11:11:20;;;;;;;3.00;2.80;;;31.70;99.90;;;;;;5096371;28;20408;-55
2023/04/10 11:13:49;;;;;;;2.20;2.00;;;32.20;99.90;;;;;;5097461;28;20393;-55
2023/04/10 11:16:14;;;;;;;2.93;2.00;;;32.60;99.90;;;;;;5096951;28;20517;-53
2023/04/10 11:18:43;;;;;;;2.83;2.63;;;32.80;99.90;;;;;;5096577;28;20531;-52
2023/04/10 11:21:19;;;;;;;3.57;3.27;;;33.20;99.90;;;;;;5097006;28;20422;-53
2023/04/10 11:23:57;;;;;;;5.10;4.70;;;33.30;99.90;;;;;;5096605;28;20400;-53
2023/04/10 11:26:39;;;;;;;3.60;3.30;;;33.50;99.90;;;;;;5095776;28;20414;-51
2023/04/10 11:29:06;;;;;;;2.90;2.50;;;33.60;99.90;;;;;;5092465;28;20384;-53
2023/04/10 11:31:33;;;;;;;2.13;2.00;;;33.70;99.90;;;;;;5093312;28;20487;-53
2023/04/10 11:34:03;;;;;;;2.23;2.03;;;33.50;99.90;;;;;;5083449;28;20561;-54
2023/04/10 11:36:29;;;;;;;2.90;2.70;;;33.50;99.90;;;;;;5075008;28;20688;-53
2023/04/10 11:38:55;;;;;;;9.13;8.53;;;33.70;99.90;;;;;;5071708;28;20463;-55
2023/04/10 11:41:27;;;;;;;6.03;5.63;;;33.80;99.90;;;;;;5071267;28;20776;-52
2023/04/10 11:43:53;;;;;;;4.50;4.20;;;34.10;99.90;;;;;;5071966;28;20374;-54
2023/04/10 11:46:19;;;;;;;4.23;3.83;;;34.40;99.90;;;;;;5073913;28;20400;-52
2023/04/10 11:48:45;;;;;;;3.27;3.07;;;34.60;99.90;;;;;;5076246;28;20505;-50
2023/04/10 11:51:12;;;;;;;4.63;4.27;;;34.70;99.90;;;;;;5095344;28;20549;-55
2023/04/10 11:53:39;;;;;;;4.07;3.77;;;34.50;99.90;;;;;;5096119;28;21056;-55
2023/04/10 11:56:10;;;;;;;3.90;3.60;;;34.80;99.90;;;;;;5094911;28;20500;-53
2023/04/10 11:58:36;;;;;;;3.30;3.00;;;34.80;99.90;;;;;;5091479;28;20504;-51
2023/04/10 12:01:03;;;;;;;3.20;3.00;;;35.10;99.90;;;;;;5093046;28;20482;-53
2023/04/10 12:03:38;;;;;;;2.70;2.50;;;35.40;99.90;;;;;;5088838;28;20749;-56
2023/04/10 12:06:12;;;;;;;2.50;2.30;;;35.30;99.90;;;;;;5073174;28;20586;-56
2023/04/10 12:08:50;;;;;;;2.70;2.50;;;35.30;99.90;;;;;;5071471;28;20845;-56
2023/04/10 12:11:21;;;;;;;2.20;2.00;;;35.40;99.90;;;;;;5072209;28;20967;-53
2023/04/10 12:13:47;;;;;;;2.20;2.00;;;35.60;99.90;;;;;;5074119;28;20404;-56
2023/04/10 12:16:13;;;;;;;2.57;2.37;;;35.60;99.90;;;;;;5075802;28;20447;-54
2023/04/10 12:18:39;;;;;;;2.00;1.80;;;35.70;99.90;;;;;;5075462;28;20458;-55
2023/04/10 12:21:05;;;;;;;1.63;1.53;;;35.70;99.90;;;;;;5075805;28;20165;-54
2023/04/10 12:23:35;;;;;;;1.80;1.70;;;35.30;99.90;;;;;;5072292;28;20394;-54
2023/04/10 12:26:19;;;;;;;2.33;1.60;;;35.20;99.90;;;;;;5073335;28;20812;-57
2023/04/10 12:28:51;;;;;;;1.50;1.40;;;35.00;99.90;;;;;;5075285;28;20436;-57
2023/04/10 12:31:17;;;;;;;1.77;1.67;;;34.80;99.90;;;;;;5075431;28;20459;-56
2023/04/10 12:33:46;;;;;;;1.60;1.50;;;34.80;99.90;;;;;;5074924;28;20481;-57
2023/04/10 12:36:22;;;;;;;1.60;1.50;;;34.60;99.90;;;;;;5075357;28;20246;-55
2023/04/10 12:38:48;;;;;;;1.53;1.40;;;34.50;99.90;;;;;;5074363;28;20433;-55
2023/04/10 12:41:27;;;;;;;1.70;1.60;;;34.50;99.90;;;;;;5074321;28;20431;-56
2023/04/10 12:43:54;;;;;;;1.50;1.27;;;34.40;99.90;;;;;;5074396;28;20207;-57
2023/04/10 12:46:27;;;;;;;1.40;1.20;;;34.10;99.90;;;;;;5075014;28;20648;-56
2023/04/10 12:48:54;;;;;;;1.60;1.50;;;33.80;99.90;;;;;;5072453;28;20826;-56
2023/04/10 12:51:50;;;;;;;1.60;1.50;;;33.40;99.90;;;;;;5071130;28;20407;-56